Okahumpka, FL (34762)

3:00 AM EDT on October 20, 2019 (GMT -0400)
Plantation at Leesburg | | Change Station
Active Advisory: Flood Warning

Elev 90 ft 28.72 °N, 81.89 °W | Updated 4 minutes ago

Partly Cloudy
Partly Cloudy
75 °F
Feels Like 73 °F
N
1
Wind Variable Wind from SSE
Gusts 5.0 mph

Today
High -- | Low -- °F
--% Chance of Precip.
Yesterday
High -- | Low -- °F
Precip. -- in
Pressure 29.82 in
Visibility 10.0 miles
Clouds Few 1000 ft
Heat Index 73 °F
Dew Point 74 °F
Humidity 98%
Rainfall 0.00 in
Snow Depth Not available.
7:31 AM 6:52 PM
Waning Gibbous, 63% visible
METAR KLEE 200653Z AUTO 21010KT 10SM FEW010 25/23 A2982 RMK AO2 SLP097 T02500233 $
Pressure 29.82 in
Visibility 10.0 miles
Clouds Few 1000 ft
Heat Index 73 °F
Dew Point 74 °F
Humidity 98%
Rainfall 0.00 in
Snow Depth Not available.
7:31 AM 6:52 PM
Waning Gibbous, 63% visible
METAR KLEE 200653Z AUTO 21010KT 10SM FEW010 25/23 A2982 RMK AO2 SLP097 T02500233 $

Get Your Daily Forecast Email!

Thanks for signing up!

Be on the lookout for a verification email in your inbox.

You'll start receiving severe weather alerts in your inbox..

×

10-Day Weather Forecast

Almanac

Astronomy

Oct. 20, 2019 Rise Set
Actual Time
Civil Twilight
Nautical Twilight
Astronomical Twilight
Moon
Length of Visible Light
Length of Day
Tomorrow will be .
, % of the Moon is Illuminated

Today's Extremes

State Highs State Lows

Community

WunderPhotos

Category 6

Welcome to Category 6. This is the collective home for Weather Underground's featured writeups by Dr. Jeff Masters (right), Bob Henson (left), Chris Burt, and other regular contributors.

Nearby

Air Quality

  Air Quality AQ Index Pollutant
Not available.

Snow Depth

Station Depth Elevation

Earthquake Activity

City Distance Mag. Time & Date
Minimum magnitude displayed is 2.5.

Coastal Water Temperatures

Place Temperature

Stations

Nearby Weather Stations

Station Location Temp. Windchill Dew Point Humidity Wind Precip. Elev Updated Type
                   

Watches & Warnings

Flood Warning
Issued: 10:11 AM EDT Oct. 19, 2019 – National Weather Service

The Flood Warning continues for
the St Johns River near Astor.
* Minor flooding is occurring and minor flooding is forecast.

*At 2.8 feet, docks and boat ramps covered at south moon Fish Camp
and approaching sea wall at blair's jungle den.



             Fld observed forecast 7 am EST/8 am EDT
location stg stg day time sun Mon Tue Wed Thu

St. Johns River
Astor 2.3 2.5 Sat 09 am 2.6 2.5 2.4 2.4 2.3



Lat... Lon 2908 8150 2932 8169 2935 8157 2910 8142